Time;durP1;ratioP1;P1;durP2;ratioP2;P2;SDS_P1;SDS_P2;PMS_P1;PMS_P2;Temp;Humidity;BMP_temperature;BMP_pressure;BME280_temperature;BME280_humidity;BME280_pressure;Samples;Min_cycle;Max_cycle;Signal;HPM_P1;HPM_P2
2022/12/04 00:01:02;;;;;;;39.72;18.45;;;1.90;99.90;;;;;;5110144;28;20042;-86
2022/12/04 00:03:28;;;;;;;37.00;17.40;;;1.90;99.90;;;;;;5091970;28;20056;-87
2022/12/04 00:06:11;;;;;;;36.42;17.80;;;1.90;99.90;;;;;;5092920;28;20123;-86
2022/12/04 00:08:38;;;;;;;37.42;19.30;;;1.90;99.90;;;;;;5110447;28;20043;-86
2022/12/04 00:11:05;;;;;;;42.47;20.30;;;1.90;99.90;;;;;;5109636;28;20075;-87
2022/12/04 00:13:31;;;;;;;40.78;19.23;;;1.90;99.90;;;;;;5109230;28;20040;-86
2022/12/04 00:15:58;;;;;;;40.20;19.58;;;1.90;99.90;;;;;;5099635;28;20044;-87
2022/12/04 00:18:23;;;;;;;38.28;19.30;;;1.90;99.90;;;;;;5089224;28;20493;-87
2022/12/04 00:20:49;;;;;;;37.97;18.33;;;1.90;99.90;;;;;;5081959;28;20069;-86
2022/12/04 00:23:15;;;;;;;42.03;18.60;;;1.90;99.90;;;;;;5109526;28;20469;-87
2022/12/04 00:25:40;;;;;;;40.92;19.83;;;1.90;99.90;;;;;;5109915;28;20046;-88
2022/12/04 00:28:06;;;;;;;39.50;17.98;;;1.90;99.90;;;;;;5109018;28;20409;-87
2022/12/04 00:30:32;;;;;;;37.95;18.20;;;1.90;99.90;;;;;;5092520;28;20078;-87
2022/12/04 00:32:57;;;;;;;39.05;18.77;;;1.90;99.90;;;;;;5109009;28;20038;-87
2022/12/04 00:35:24;;;;;;;38.83;18.60;;;1.90;99.90;;;;;;5109749;28;20504;-87
2022/12/04 00:37:50;;;;;;;38.30;19.20;;;1.90;99.90;;;;;;5092194;28;20043;-87
2022/12/04 00:40:16;;;;;;;41.88;18.13;;;1.90;99.90;;;;;;5109167;28;20553;-87
2022/12/04 00:42:41;;;;;;;40.65;19.50;;;1.90;99.90;;;;;;5108462;28;20161;-87
2022/12/04 00:45:07;;;;;;;45.30;20.92;;;1.90;99.90;;;;;;5109675;28;20039;-87
2022/12/04 00:47:32;;;;;;;50.33;22.58;;;1.90;99.90;;;;;;5109392;28;20039;-87
2022/12/04 00:49:58;;;;;;;40.55;18.67;;;1.90;99.90;;;;;;5110577;28;20515;-87
2022/12/04 00:52:24;;;;;;;44.92;20.98;;;1.90;99.90;;;;;;5095890;28;20051;-87
2022/12/04 00:54:49;;;;;;;43.08;20.40;;;1.90;99.90;;;;;;5113094;28;20031;-86
2022/12/04 00:57:15;;;;;;;42.13;19.77;;;1.90;99.90;;;;;;5096024;28;20126;-87
2022/12/04 00:59:41;;;;;;;44.00;19.92;;;2.00;99.90;;;;;;5112473;28;20066;-87
2022/12/04 01:02:06;;;;;;;38.63;17.92;;;1.90;99.90;;;;;;5112157;28;20039;-86
2022/12/04 01:04:32;;;;;;;39.40;19.50;;;1.90;99.90;;;;;;5112711;28;20448;-86
2022/12/04 01:06:57;;;;;;;37.80;19.80;;;1.90;99.90;;;;;;5112965;28;20089;-86
2022/12/04 01:09:23;;;;;;;44.28;20.30;;;1.90;99.90;;;;;;5112718;28;20114;-86
2022/12/04 01:11:48;;;;;;;41.75;19.65;;;1.90;99.90;;;;;;5094475;28;20032;-86
2022/12/04 01:14:14;;;;;;;39.38;19.60;;;1.90;99.90;;;;;;5112478;28;20045;-87
2022/12/04 01:16:40;;;;;;;42.03;20.67;;;1.90;99.90;;;;;;5095724;28;20067;-87
2022/12/04 01:19:08;;;;;;;40.25;20.15;;;1.90;99.90;;;;;;5094795;28;20481;-87
2022/12/04 01:21:34;;;;;;;40.17;20.30;;;1.90;99.90;;;;;;5113082;28;20500;-86
2022/12/04 01:24:00;;;;;;;43.13;22.88;;;1.90;99.90;;;;;;5095663;28;20031;-87
2022/12/04 01:26:26;;;;;;;41.88;20.42;;;1.90;99.90;;;;;;5111998;28;20493;-86
2022/12/04 01:28:51;;;;;;;41.45;21.30;;;1.90;99.90;;;;;;5095671;28;20039;-87
2022/12/04 01:31:19;;;;;;;43.58;20.98;;;1.90;99.90;;;;;;5111515;28;20100;-86
2022/12/04 01:33:45;;;;;;;41.20;21.63;;;1.90;99.90;;;;;;5110130;28;20020;-86
2022/12/04 01:36:14;;;;;;;37.47;18.85;;;1.90;99.90;;;;;;5110398;28;20046;-86
2022/12/04 01:38:40;;;;;;;41.45;20.95;;;1.90;99.90;;;;;;5124589;28;20084;-86
2022/12/04 01:41:07;;;;;;;44.50;21.48;;;1.90;99.90;;;;;;5130856;28;20040;-86
2022/12/04 01:43:34;;;;;;;47.70;21.60;;;1.90;99.90;;;;;;5104841;28;20043;-86
2022/12/04 01:46:01;;;;;;;38.42;19.45;;;1.90;99.90;;;;;;5096401;28;20057;-86
2022/12/04 01:48:31;;;;;;;41.95;20.35;;;1.90;99.90;;;;;;5111302;28;20515;-86
2022/12/04 01:51:06;;;;;;;44.38;20.60;;;1.90;99.90;;;;;;5095303;28;20108;-87
2022/12/04 01:53:34;;;;;;;44.42;22.05;;;1.90;99.90;;;;;;5091093;28;20078;-86
2022/12/04 01:56:01;;;;;;;40.50;20.42;;;1.90;99.90;;;;;;5074580;28;20044;-86
2022/12/04 01:58:31;;;;;;;44.03;20.88;;;1.90;99.90;;;;;;5100525;28;20066;-86
2022/12/04 02:01:01;;;;;;;40.95;20.48;;;1.90;99.90;;;;;;5094551;28;20180;-86
2022/12/04 02:03:26;;;;;;;42.72;20.67;;;1.90;99.90;;;;;;5111200;28;20039;-86
2022/12/04 02:05:52;;;;;;;45.00;21.10;;;1.90;99.90;;;;;;5111608;28;20045;-86
2022/12/04 02:08:18;;;;;;;41.90;20.95;;;1.90;99.90;;;;;;5111619;28;20032;-86
2022/12/04 02:11:08;;;;;;;43.72;21.73;;;1.90;99.90;;;;;;5110681;28;20058;-86
2022/12/04 02:13:44;;;;;;;43.28;21.67;;;1.90;99.90;;;;;;5093821;28;20524;-86
2022/12/04 02:16:27;;;;;;;42.08;20.98;;;1.90;99.90;;;;;;5094342;28;20509;-86
2022/12/04 02:19:18;;;;;;;40.97;20.05;;;1.90;99.90;;;;;;5094551;28;20115;-86
2022/12/04 02:21:48;;;;;;;42.03;20.30;;;1.90;99.90;;;;;;5091263;28;20818;-86
2022/12/04 02:24:47;;;;;;;41.28;21.08;;;1.90;99.90;;;;;;5099691;28;20520;-86
2022/12/04 02:27:37;;;;;;;44.40;21.65;;;1.90;99.90;;;;;;5075581;28;20056;-86
2022/12/04 02:30:10;;;;;;;46.03;20.67;;;1.90;99.90;;;;;;5099235;28;20039;-86
2022/12/04 02:33:00;;;;;;;41.78;20.20;;;1.90;99.90;;;;;;5110503;28;20078;-86
2022/12/04 02:35:47;;;;;;;41.90;21.00;;;1.90;99.90;;;;;;5101375;28;20451;-86
2022/12/04 02:38:30;;;;;;;44.13;19.90;;;1.90;99.90;;;;;;5090250;28;20051;-86
2022/12/04 02:41:10;;;;;;;42.53;20.00;;;1.90;99.90;;;;;;5091929;28;20398;-87
2022/12/04 02:44:09;;;;;;;42.28;18.95;;;1.90;99.90;;;;;;5110433;28;20088;-86
2022/12/04 02:46:38;;;;;;;43.17;19.85;;;1.90;99.90;;;;;;5072858;28;20048;-86
2022/12/04 02:49:10;;;;;;;43.42;21.15;;;1.90;99.90;;;;;;5092844;28;20032;-86
2022/12/04 02:51:39;;;;;;;41.50;18.90;;;1.90;99.90;;;;;;5093265;28;20071;-86
2022/12/04 02:54:13;;;;;;;42.42;19.25;;;1.90;99.90;;;;;;5101629;28;20043;-86
2022/12/04 02:56:42;;;;;;;40.65;20.38;;;1.90;99.90;;;;;;5053730;28;20040;-86
2022/12/04 02:59:14;;;;;;;41.67;19.45;;;1.90;99.90;;;;;;5070478;28;20051;-86
2022/12/04 03:01:43;;;;;;;42.22;22.08;;;1.90;99.90;;;;;;5110622;28;20127;-86
2022/12/04 03:04:19;;;;;;;43.38;21.88;;;1.90;99.90;;;;;;5111234;28;20476;-86
2022/12/04 03:06:54;;;;;;;44.08;20.98;;;1.90;99.90;;;;;;5111082;28;20053;-87
2022/12/04 03:09:42;;;;;;;46.85;22.13;;;1.90;99.90;;;;;;5093721;28;20523;-87
2022/12/04 03:12:28;;;;;;;41.55;21.20;;;1.90;99.90;;;;;;5092701;28;20114;-87
2022/12/04 03:14:59;;;;;;;48.15;22.83;;;1.90;99.90;;;;;;5092417;28;20096;-87
2022/12/04 03:17:37;;;;;;;41.67;20.35;;;1.90;99.90;;;;;;5110386;28;20047;-87
2022/12/04 03:20:09;;;;;;;41.15;19.55;;;1.90;99.90;;;;;;5084246;28;20035;-86
2022/12/04 03:22:39;;;;;;;43.90;20.70;;;1.90;99.90;;;;;;5110972;28;20035;-87
2022/12/04 03:25:07;;;;;;;44.55;19.70;;;1.90;99.90;;;;;;5093836;28;20032;-87
2022/12/04 03:27:55;;;;;;;42.80;21.20;;;1.90;99.90;;;;;;5092710;28;20079;-87
2022/12/04 03:30:22;;;;;;;47.03;21.98;;;1.90;99.90;;;;;;5093101;28;20043;-87
2022/12/04 03:33:12;;;;;;;43.22;20.45;;;1.90;99.90;;;;;;5091793;28;20042;-87
2022/12/04 03:35:53;;;;;;;45.00;20.75;;;1.90;99.90;;;;;;5110240;28;20036;-87
2022/12/04 03:38:37;;;;;;;44.47;20.88;;;1.80;99.90;;;;;;5092808;28;20124;-87
2022/12/04 03:41:04;;;;;;;47.13;21.52;;;1.90;99.90;;;;;;5093302;28;20040;-87
2022/12/04 03:43:41;;;;;;;46.40;21.67;;;1.80;99.90;;;;;;5109885;28;20504;-87
2022/12/04 03:46:25;;;;;;;42.65;20.55;;;1.80;99.90;;;;;;5110349;28;20032;-87
2022/12/04 03:49:13;;;;;;;44.67;20.92;;;1.80;99.90;;;;;;5110581;28;20100;-87
2022/12/04 03:52:04;;;;;;;46.63;22.45;;;1.80;99.90;;;;;;5090777;28;20574;-87
2022/12/04 03:54:35;;;;;;;44.65;22.23;;;1.80;99.90;;;;;;5109830;28;20048;-87
2022/12/04 03:57:14;;;;;;;42.72;20.92;;;1.80;99.90;;;;;;5092134;28;20089;-87
2022/12/04 03:59:59;;;;;;;44.58;20.67;;;1.80;99.90;;;;;;5092822;28;20071;-87
2022/12/04 04:02:31;;;;;;;42.90;22.20;;;1.80;99.90;;;;;;5109208;28;20035;-87
2022/12/04 04:04:58;;;;;;;47.35;21.98;;;1.80;99.90;;;;;;5093804;28;20119;-87
2022/12/04 04:07:31;;;;;;;42.17;20.77;;;1.90;99.90;;;;;;5093789;28;20058;-87
2022/12/04 04:10:02;;;;;;;44.00;21.17;;;1.80;99.90;;;;;;5091340;28;20525;-87
2022/12/04 04:12:34;;;;;;;45.88;20.88;;;1.80;99.90;;;;;;5109412;28;20044;-87
2022/12/04 04:26:34;;;;;;;44.45;19.83;;;1.80;99.90;;;;;;5113971;28;20556;-86
2022/12/04 04:29:00;;;;;;;43.42;21.23;;;1.80;99.90;;;;;;5114407;28;20035;-86
2022/12/04 04:31:45;;;;;;;43.35;22.20;;;1.80;99.90;;;;;;5095758;28;20130;-87
2022/12/04 04:34:48;;;;;;;41.03;19.42;;;1.80;99.90;;;;;;5113400;28;20047;-87
2022/12/04 04:37:22;;;;;;;41.80;20.08;;;1.80;99.90;;;;;;5113388;28;20492;-87
2022/12/04 04:40:25;;;;;;;44.45;20.65;;;1.80;99.90;;;;;;5096351;28;20043;-87
2022/12/04 04:43:10;;;;;;;43.47;21.45;;;1.80;99.90;;;;;;5113688;28;20039;-87
2022/12/04 04:45:45;;;;;;;39.38;20.10;;;1.90;99.90;;;;;;5114113;28;20480;-87
2022/12/04 04:48:20;;;;;;;45.17;22.25;;;1.80;99.90;;;;;;5113358;28;20118;-87
2022/12/04 04:50:46;;;;;;;48.20;21.90;;;1.80;99.90;;;;;;5113323;28;20504;-87
2022/12/04 04:53:17;;;;;;;44.38;21.08;;;1.80;99.90;;;;;;5095473;28;20480;-87
2022/12/04 04:55:43;;;;;;;44.30;21.13;;;1.80;99.90;;;;;;5095994;28;20500;-87
2022/12/04 04:58:12;;;;;;;44.83;22.60;;;1.80;99.90;;;;;;5096351;28;20036;-87
2022/12/04 05:00:38;;;;;;;45.72;21.48;;;1.80;99.90;;;;;;5095964;28;20412;-87
2022/12/04 05:03:05;;;;;;;42.40;20.80;;;1.80;99.90;;;;;;5096632;28;20134;-87
2022/12/04 05:05:31;;;;;;;45.42;20.45;;;1.80;99.90;;;;;;5096783;28;20118;-87
2022/12/04 05:07:56;;;;;;;45.88;22.48;;;1.80;99.90;;;;;;5095708;28;20028;-87
2022/12/04 05:10:22;;;;;;;39.45;20.05;;;1.80;99.90;;;;;;5112995;28;20039;-87
2022/12/04 05:12:48;;;;;;;43.75;21.95;;;1.80;99.90;;;;;;5111936;28;20111;-87
2022/12/04 05:15:14;;;;;;;40.78;20.60;;;1.80;99.90;;;;;;5095707;28;20563;-87
2022/12/04 05:17:39;;;;;;;41.85;20.90;;;1.80;99.90;;;;;;5095227;28;20074;-88
2022/12/04 05:20:05;;;;;;;47.17;22.17;;;1.80;99.90;;;;;;5112335;28;20043;-87
2022/12/04 05:22:33;;;;;;;40.47;20.70;;;1.80;99.90;;;;;;5112877;28;20488;-87
2022/12/04 05:25:00;;;;;;;40.60;19.67;;;1.80;99.90;;;;;;5095234;28;20043;-87
2022/12/04 05:27:27;;;;;;;39.58;19.98;;;1.80;99.90;;;;;;5096436;28;20058;-87
2022/12/04 05:29:54;;;;;;;43.53;19.58;;;1.80;99.90;;;;;;5112460;28;20090;-87
2022/12/04 05:32:21;;;;;;;47.13;21.17;;;1.80;99.90;;;;;;5080401;28;20043;-87
2022/12/04 05:34:51;;;;;;;45.60;21.58;;;1.80;99.90;;;;;;5091483;28;20119;-87
2022/12/04 05:37:17;;;;;;;46.97;22.40;;;1.80;99.90;;;;;;5094887;28;20046;-87
2022/12/04 05:39:42;;;;;;;42.20;19.95;;;1.80;99.90;;;;;;5112552;28;20036;-87
2022/12/04 05:42:08;;;;;;;43.67;20.85;;;1.80;99.90;;;;;;5111868;28;20118;-87
2022/12/04 05:44:34;;;;;;;42.00;20.90;;;1.80;99.90;;;;;;5112800;28;20028;-87
2022/12/04 05:47:00;;;;;;;42.28;19.95;;;1.80;99.90;;;;;;5112045;28;20534;-87
2022/12/04 05:49:28;;;;;;;46.03;20.20;;;1.80;99.90;;;;;;5095006;28;20420;-87
2022/12/04 05:51:54;;;;;;;43.85;19.75;;;1.80;99.90;;;;;;5111308;28;20039;-87
2022/12/04 05:54:20;;;;;;;44.47;21.98;;;1.80;99.90;;;;;;5110530;28;20040;-87
2022/12/04 05:56:46;;;;;;;42.83;20.83;;;1.80;99.90;;;;;;5094941;28;20123;-87
2022/12/04 05:59:11;;;;;;;47.88;22.85;;;1.80;99.90;;;;;;5109203;28;20705;-86
2022/12/04 06:01:37;;;;;;;45.95;21.70;;;1.70;99.90;;;;;;5110296;28;20038;-87
2022/12/04 06:04:03;;;;;;;43.15;22.25;;;1.70;99.90;;;;;;5110314;28;20460;-87
2022/12/04 06:06:28;;;;;;;40.00;21.00;;;1.80;99.90;;;;;;5109537;28;20421;-87
2022/12/04 06:08:56;;;;;;;46.83;22.58;;;1.80;99.90;;;;;;5112260;28;20103;-87
2022/12/04 06:11:28;;;;;;;40.85;20.83;;;1.80;99.90;;;;;;5111363;28;20048;-87
2022/12/04 06:13:55;;;;;;;41.00;18.33;;;1.80;99.90;;;;;;5109815;28;20386;-87
2022/12/04 06:16:26;;;;;;;42.55;18.77;;;1.80;99.90;;;;;;5094585;28;20039;-87
2022/12/04 06:18:55;;;;;;;39.60;19.17;;;1.80;99.90;;;;;;5093700;28;20035;-87
2022/12/04 06:21:22;;;;;;;42.25;19.42;;;1.80;99.90;;;;;;5103260;28;20078;-86
2022/12/04 06:23:48;;;;;;;44.30;21.30;;;1.80;99.90;;;;;;5076790;28;20024;-87
2022/12/04 06:26:14;;;;;;;42.75;20.42;;;1.80;99.90;;;;;;5093176;28;20372;-86
2022/12/04 06:28:39;;;;;;;42.97;20.38;;;1.80;99.90;;;;;;5110467;28;20039;-87
2022/12/04 06:31:08;;;;;;;42.88;20.60;;;1.80;99.90;;;;;;5109540;28;20103;-87
2022/12/04 06:33:34;;;;;;;39.63;19.23;;;1.80;99.90;;;;;;5109445;28;20516;-86
2022/12/04 06:36:03;;;;;;;42.63;20.85;;;1.80;99.90;;;;;;5092202;28;20050;-87
2022/12/04 06:38:29;;;;;;;46.33;21.23;;;1.80;99.90;;;;;;5110265;28;20086;-86
2022/12/04 06:40:55;;;;;;;39.80;19.50;;;1.80;99.90;;;;;;5110757;28;20083;-87
2022/12/04 06:43:21;;;;;;;39.80;18.13;;;1.80;99.90;;;;;;5109996;28;20443;-86
2022/12/04 06:45:47;;;;;;;39.80;20.35;;;1.70;99.90;;;;;;5110516;28;20496;-87
2022/12/04 06:48:12;;;;;;;44.17;20.58;;;1.70;99.90;;;;;;5108966;28;20040;-87
2022/12/04 06:50:38;;;;;;;39.75;19.33;;;1.70;99.90;;;;;;5094066;28;20054;-87
2022/12/04 06:53:03;;;;;;;39.72;18.35;;;1.70;99.90;;;;;;5072012;28;20043;-87
2022/12/04 06:55:29;;;;;;;41.45;19.27;;;1.70;99.90;;;;;;5096828;28;20123;-86
2022/12/04 06:57:55;;;;;;;40.63;18.30;;;1.70;99.90;;;;;;5072994;28;20101;-86
2022/12/04 07:00:20;;;;;;;39.97;17.73;;;1.70;99.90;;;;;;5089371;28;20028;-86
2022/12/04 07:02:46;;;;;;;40.75;19.10;;;1.70;99.90;;;;;;5099608;28;20065;-85
2022/12/04 07:05:11;;;;;;;38.60;17.95;;;1.70;99.90;;;;;;5102613;28;20051;-86
2022/12/04 07:07:37;;;;;;;37.03;18.10;;;1.80;99.90;;;;;;5092395;28;20047;-87
2022/12/04 07:10:05;;;;;;;43.58;19.80;;;1.80;99.90;;;;;;5100513;28;20043;-86
2022/12/04 07:12:31;;;;;;;39.95;19.15;;;1.80;99.90;;;;;;5091409;28;20516;-87
2022/12/04 07:14:56;;;;;;;42.80;20.52;;;1.80;99.90;;;;;;5095014;28;20031;-87
2022/12/04 07:17:22;;;;;;;38.78;16.73;;;1.80;99.90;;;;;;5108621;28;20031;-87
2022/12/04 07:19:47;;;;;;;35.63;17.75;;;1.80;99.90;;;;;;5093329;28;20032;-87
2022/12/04 07:22:13;;;;;;;43.33;19.77;;;1.80;99.90;;;;;;5108694;28;20473;-87
2022/12/04 07:24:39;;;;;;;48.05;19.42;;;1.80;99.90;;;;;;5110121;28;20438;-87
2022/12/04 07:27:04;;;;;;;39.42;20.15;;;1.70;99.90;;;;;;5108377;28;20049;-86
2022/12/04 07:29:30;;;;;;;39.35;18.20;;;1.80;99.90;;;;;;5109614;28;20043;-86
2022/12/04 07:31:56;;;;;;;40.60;17.77;;;1.80;99.90;;;;;;5108208;28;20082;-86
2022/12/04 07:34:22;;;;;;;36.90;17.73;;;1.80;99.90;;;;;;5108304;28;20039;-86
2022/12/04 07:36:47;;;;;;;36.75;19.25;;;1.80;99.90;;;;;;5109480;28;20032;-87
2022/12/04 07:39:13;;;;;;;38.92;19.25;;;1.80;99.90;;;;;;5109472;28;20050;-86
2022/12/04 07:41:39;;;;;;;35.70;17.55;;;1.80;99.90;;;;;;5109238;28;20130;-87
2022/12/04 07:44:04;;;;;;;40.70;18.98;;;1.80;99.90;;;;;;5092162;28;20451;-87
2022/12/04 07:46:30;;;;;;;41.22;19.88;;;1.80;99.90;;;;;;5092698;28;20103;-87
2022/12/04 07:48:57;;;;;;;37.88;19.15;;;1.80;99.90;;;;;;5110018;28;20435;-86
2022/12/04 07:51:25;;;;;;;39.17;18.88;;;1.80;99.90;;;;;;5108634;28;20404;-86
2022/12/04 07:53:52;;;;;;;41.58;20.88;;;1.80;99.90;;;;;;5092055;28;20051;-86
2022/12/04 07:56:18;;;;;;;41.78;21.60;;;1.80;99.90;;;;;;5091787;28;20074;-86
2022/12/04 07:58:45;;;;;;;39.50;18.35;;;1.80;99.90;;;;;;5071948;28;20051;-86
2022/12/04 08:01:20;;;;;;;41.65;19.95;;;1.80;99.90;;;;;;5073595;28;20028;-86
2022/12/04 08:03:47;;;;;;;40.65;20.08;;;1.80;99.90;;;;;;5091968;28;20076;-86
2022/12/04 08:06:14;;;;;;;37.17;18.50;;;1.80;99.90;;;;;;5102618;28;20044;-86
2022/12/04 08:08:39;;;;;;;42.60;21.05;;;1.80;99.90;;;;;;5085481;28;20074;-86
2022/12/04 08:11:11;;;;;;;43.97;20.92;;;1.80;99.90;;;;;;5088939;28;20414;-86
2022/12/04 08:13:36;;;;;;;40.50;18.70;;;1.90;99.90;;;;;;5102393;28;20048;-86
2022/12/04 08:16:04;;;;;;;45.92;20.63;;;1.90;99.90;;;;;;5109387;28;20163;-86
2022/12/04 08:18:30;;;;;;;36.75;16.83;;;1.90;99.90;;;;;;5108467;28;20075;-86
2022/12/04 08:21:06;;;;;;;39.85;18.67;;;1.90;99.90;;;;;;5108954;28;20039;-86
2022/12/04 08:23:32;;;;;;;41.47;20.20;;;1.90;99.90;;;;;;5091775;28;20043;-87
2022/12/04 08:25:59;;;;;;;40.17;19.15;;;1.90;99.90;;;;;;5096291;28;20031;-87
2022/12/04 08:28:25;;;;;;;46.20;21.00;;;1.90;99.90;;;;;;5088409;28;20050;-87
2022/12/04 08:30:50;;;;;;;39.80;19.02;;;1.90;99.90;;;;;;5092505;28;20110;-87
2022/12/04 08:33:16;;;;;;;40.40;20.00;;;1.90;99.90;;;;;;5106000;28;20050;-87
2022/12/04 08:35:42;;;;;;;34.97;17.45;;;2.00;99.90;;;;;;5092168;28;20044;-87
2022/12/04 08:38:07;;;;;;;40.95;20.70;;;1.90;99.90;;;;;;5099776;28;20035;-87
2022/12/04 08:40:33;;;;;;;39.42;20.63;;;1.90;99.90;;;;;;5109306;28;20093;-86
2022/12/04 08:42:58;;;;;;;42.45;21.70;;;1.90;99.90;;;;;;5107119;28;20771;-86
2022/12/04 08:45:24;;;;;;;39.72;19.90;;;1.90;99.90;;;;;;5107633;28;20032;-86
2022/12/04 08:47:49;;;;;;;42.58;22.13;;;1.90;99.90;;;;;;5072865;28;20050;-87
2022/12/04 08:50:15;;;;;;;39.95;20.20;;;1.90;99.90;;;;;;5080266;28;20035;-86
2022/12/04 08:52:41;;;;;;;42.58;18.85;;;2.00;99.90;;;;;;5107671;28;20130;-86
2022/12/04 08:55:07;;;;;;;40.05;18.80;;;2.00;99.90;;;;;;5108856;28;20071;-87
2022/12/04 08:57:32;;;;;;;39.75;20.05;;;2.00;99.90;;;;;;5103673;28;20047;-87
2022/12/04 08:59:58;;;;;;;39.63;19.02;;;2.00;99.90;;;;;;5071673;28;20039;-87
2022/12/04 09:02:23;;;;;;;45.97;20.45;;;2.00;99.90;;;;;;5093840;28;20520;-87
2022/12/04 09:04:49;;;;;;;37.63;17.92;;;2.00;99.90;;;;;;5082947;28;20036;-87
2022/12/04 09:07:15;;;;;;;45.22;18.90;;;2.10;99.90;;;;;;5071445;28;20032;-87
2022/12/04 09:09:40;;;;;;;37.92;18.45;;;2.10;99.90;;;;;;5108100;28;20625;-87
2022/12/04 09:12:06;;;;;;;38.45;18.38;;;2.10;99.90;;;;;;5090343;28;20069;-87
2022/12/04 09:14:31;;;;;;;41.15;20.13;;;2.10;99.90;;;;;;5075089;28;20047;-86
2022/12/04 09:16:57;;;;;;;36.75;18.83;;;2.10;99.90;;;;;;5112510;28;20059;-87
2022/12/04 09:19:23;;;;;;;41.97;18.70;;;2.20;99.90;;;;;;5112420;28;20071;-87
2022/12/04 09:21:48;;;;;;;46.10;20.58;;;2.10;99.90;;;;;;5111850;28;20130;-86
2022/12/04 09:24:14;;;;;;;42.30;20.67;;;2.20;99.90;;;;;;5112073;28;20096;-86
2022/12/04 09:26:40;;;;;;;41.88;18.50;;;2.20;99.90;;;;;;5110522;28;20035;-87
2022/12/04 09:29:06;;;;;;;46.35;20.35;;;2.20;99.90;;;;;;5074663;28;20525;-87
2022/12/04 09:31:33;;;;;;;38.88;18.63;;;2.20;99.90;;;;;;5109788;28;20266;-87
2022/12/04 09:33:59;;;;;;;39.42;19.33;;;2.30;99.90;;;;;;5088357;28;20032;-87
2022/12/04 09:36:26;;;;;;;46.17;20.63;;;2.30;99.90;;;;;;5111572;28;20043;-86
2022/12/04 09:38:53;;;;;;;40.60;18.33;;;2.20;99.90;;;;;;5111765;28;20489;-86
2022/12/04 09:41:33;;;;;;;42.85;19.48;;;2.30;99.90;;;;;;5111265;28;20097;-86
2022/12/04 09:44:36;;;;;;;40.85;21.33;;;2.30;99.90;;;;;;5111762;28;20520;-86
2022/12/04 09:47:08;;;;;;;37.80;17.60;;;2.30;99.90;;;;;;5103473;28;20134;-86
2022/12/04 09:49:45;;;;;;;40.75;19.05;;;2.30;99.90;;;;;;5095181;28;20047;-86
2022/12/04 09:52:51;;;;;;;42.78;20.83;;;2.40;99.90;;;;;;5094264;28;20031;-86
2022/12/04 09:55:37;;;;;;;39.65;19.08;;;2.40;99.90;;;;;;5093001;28;20385;-86
2022/12/04 09:58:05;;;;;;;41.35;19.48;;;2.40;99.90;;;;;;5084407;28;20043;-86
2022/12/04 10:00:37;;;;;;;44.80;20.88;;;2.40;99.90;;;;;;5111620;28;20032;-86
2022/12/04 10:03:05;;;;;;;41.88;19.58;;;2.50;99.90;;;;;;5111246;28;20706;-86
2022/12/04 10:06:08;;;;;;;41.45;20.48;;;2.50;99.90;;;;;;5093781;28;20479;-86
2022/12/04 10:08:37;;;;;;;34.80;17.00;;;2.50;99.90;;;;;;5111822;28;20035;-86
2022/12/04 10:11:07;;;;;;;46.25;21.23;;;2.50;99.90;;;;;;5111561;28;20100;-85
2022/12/04 10:13:44;;;;;;;43.95;21.40;;;2.60;99.90;;;;;;5110457;28;20522;-86
2022/12/04 10:16:34;;;;;;;42.35;19.02;;;2.60;99.90;;;;;;5077708;28;20500;-86
2022/12/04 10:19:11;;;;;;;42.15;19.80;;;2.60;99.90;;;;;;5094273;28;20613;-87
2022/12/04 10:22:27;;;;;;;41.58;21.67;;;2.60;99.90;;;;;;5093420;28;20039;-87
2022/12/04 10:24:56;;;;;;;39.42;18.90;;;2.60;99.90;;;;;;4996380;28;20083;-86
2022/12/04 10:27:27;;;;;;;39.40;19.85;;;2.60;99.90;;;;;;4996157;28;20104;-87
2022/12/04 10:29:59;;;;;;;41.13;20.30;;;2.70;99.90;;;;;;4997384;28;20491;-86
2022/12/04 10:32:30;;;;;;;42.08;20.33;;;2.60;99.90;;;;;;5012375;28;20049;-87
2022/12/04 10:35:07;;;;;;;41.40;20.95;;;2.70;99.90;;;;;;4994955;28;20053;-87
2022/12/04 10:37:38;;;;;;;40.05;19.38;;;2.70;99.90;;;;;;5012259;28;20088;-86
2022/12/04 10:40:21;;;;;;;37.15;18.75;;;2.70;99.90;;;;;;5011784;28;20036;-87
2022/12/04 10:43:05;;;;;;;39.83;20.38;;;2.70;99.90;;;;;;5012571;28;20052;-87
2022/12/04 10:45:31;;;;;;;40.08;19.67;;;2.70;99.90;;;;;;5012273;28;20041;-86
2022/12/04 10:47:57;;;;;;;36.60;17.42;;;2.70;99.90;;;;;;5012904;28;20080;-86
2022/12/04 10:50:23;;;;;;;39.03;18.85;;;2.70;99.90;;;;;;4996646;28;20048;-86
2022/12/04 10:52:49;;;;;;;39.38;19.40;;;2.80;99.90;;;;;;5011353;28;20579;-86
2022/12/04 10:55:30;;;;;;;39.83;17.38;;;2.80;99.90;;;;;;5011266;28;20081;-86
2022/12/04 10:57:56;;;;;;;33.65;17.80;;;2.80;99.90;;;;;;5011491;28;20537;-86
2022/12/04 11:00:25;;;;;;;36.65;18.33;;;2.80;99.90;;;;;;5054579;28;20134;-86
2022/12/04 11:02:52;;;;;;;35.15;17.85;;;2.80;99.90;;;;;;5109575;28;20088;-86
2022/12/04 11:05:28;;;;;;;35.50;17.02;;;2.90;99.90;;;;;;5069965;28;20071;-87
2022/12/04 11:07:55;;;;;;;37.42;17.77;;;2.90;99.90;;;;;;5084761;28;20028;-86
2022/12/04 11:10:33;;;;;;;32.50;17.27;;;2.90;99.90;;;;;;5110267;28;20093;-86
2022/12/04 11:13:11;;;;;;;33.42;18.27;;;2.90;99.90;;;;;;5108540;28;20516;-87
2022/12/04 11:15:45;;;;;;;33.88;17.58;;;3.00;99.90;;;;;;5109382;28;20412;-86
2022/12/04 11:18:31;;;;;;;36.85;18.42;;;3.00;99.90;;;;;;5109643;28;20043;-86
2022/12/04 11:21:00;;;;;;;32.30;16.15;;;3.00;99.90;;;;;;5083706;28;20081;-86
2022/12/04 11:23:31;;;;;;;30.95;15.55;;;3.00;99.90;;;;;;5092689;28;20039;-86
2022/12/04 11:25:59;;;;;;;32.10;15.40;;;3.00;99.90;;;;;;5092585;28;20032;-86
2022/12/04 11:28:29;;;;;;;36.45;17.65;;;3.00;99.90;;;;;;5093587;28;20122;-86
2022/12/04 11:30:59;;;;;;;32.78;16.48;;;3.10;99.90;;;;;;5109739;28;20039;-87
2022/12/04 11:33:31;;;;;;;29.88;14.65;;;3.10;99.90;;;;;;5076928;28;20610;-86
2022/12/04 11:36:01;;;;;;;29.90;15.68;;;3.10;99.90;;;;;;5092064;28;20043;-86
2022/12/04 11:38:28;;;;;;;30.95;16.20;;;3.10;99.90;;;;;;5109190;28;20122;-86
2022/12/04 11:40:56;;;;;;;30.20;15.25;;;3.20;99.90;;;;;;5109595;28;20031;-87
2022/12/04 11:43:28;;;;;;;30.33;14.77;;;3.20;99.90;;;;;;5091702;28;20043;-87
2022/12/04 11:46:00;;;;;;;28.88;13.45;;;3.20;99.90;;;;;;5069414;28;20032;-87
2022/12/04 11:48:27;;;;;;;28.33;13.63;;;3.20;99.90;;;;;;5069260;28;20080;-87
2022/12/04 11:50:57;;;;;;;27.27;13.13;;;3.30;99.90;;;;;;5100097;28;20031;-87
2022/12/04 11:53:43;;;;;;;28.40;13.52;;;3.30;99.90;;;;;;5109419;28;20460;-87
2022/12/04 11:56:19;;;;;;;26.40;13.35;;;3.30;99.90;;;;;;5107938;28;20050;-87
2022/12/04 11:59:12;;;;;;;24.25;11.82;;;3.30;99.90;;;;;;5092475;28;20039;-87
2022/12/04 12:01:58;;;;;;;24.00;11.40;;;3.40;99.90;;;;;;5108491;28;20039;-86
2022/12/04 12:04:48;;;;;;;23.85;11.82;;;3.40;99.90;;;;;;5092153;28;20050;-87
2022/12/04 12:07:29;;;;;;;23.13;12.73;;;3.40;99.90;;;;;;5095580;28;20043;-88
2022/12/04 12:10:12;;;;;;;27.77;12.93;;;3.40;99.90;;;;;;5089354;28;20044;-87
2022/12/04 12:12:42;;;;;;;24.50;13.05;;;3.40;99.90;;;;;;5087883;28;20047;-87
2022/12/04 12:15:36;;;;;;;26.45;13.25;;;3.40;99.90;;;;;;5091005;28;20039;-86
2022/12/04 12:18:20;;;;;;;26.98;12.77;;;3.40;99.90;;;;;;5091085;28;20047;-87
2022/12/04 12:21:04;;;;;;;29.45;13.40;;;3.40;99.90;;;;;;5091332;28;20109;-87
2022/12/04 12:23:30;;;;;;;29.45;14.13;;;3.40;99.90;;;;;;5099787;28;20031;-86
2022/12/04 12:26:14;;;;;;;28.27;13.25;;;3.40;99.90;;;;;;5108342;28;20031;-88
2022/12/04 12:29:09;;;;;;;24.95;12.02;;;3.50;99.90;;;;;;5119052;28;20040;-87
2022/12/04 12:31:55;;;;;;;28.90;13.32;;;3.50;99.90;;;;;;5101790;28;20417;-88
2022/12/04 12:34:44;;;;;;;27.95;13.23;;;3.50;99.90;;;;;;5115975;28;20509;-88
2022/12/04 12:37:47;;;;;;;25.17;12.18;;;3.50;99.90;;;;;;5102105;28;20039;-87
2022/12/04 12:40:42;;;;;;;25.08;12.35;;;3.50;99.90;;;;;;5051001;28;20566;-88
2022/12/04 12:43:26;;;;;;;26.42;13.02;;;3.50;99.90;;;;;;5086933;28;20134;-87
2022/12/04 12:45:54;;;;;;;26.88;13.93;;;3.50;99.90;;;;;;5102080;28;20061;-87
2022/12/04 12:48:50;;;;;;;28.38;14.05;;;3.50;99.90;;;;;;5092400;28;20040;-87
2022/12/04 12:51:35;;;;;;;25.75;13.65;;;3.50;99.90;;;;;;5098062;28;20493;-87
2022/12/04 12:54:21;;;;;;;26.20;12.68;;;3.50;99.90;;;;;;5091402;28;20078;-85
2022/12/04 12:56:52;;;;;;;24.52;11.20;;;3.50;99.90;;;;;;5094760;28;20645;-85
2022/12/04 12:59:21;;;;;;;25.85;13.07;;;3.50;99.90;;;;;;5112408;28;20055;-85
2022/12/04 13:02:21;;;;;;;26.80;12.75;;;3.50;99.90;;;;;;5095352;28;20028;-85
2022/12/04 13:04:51;;;;;;;27.30;12.38;;;3.50;99.90;;;;;;5095181;28;20043;-87
2022/12/04 13:07:17;;;;;;;25.33;13.10;;;3.50;99.90;;;;;;5113125;28;20039;-86
2022/12/04 13:09:53;;;;;;;25.85;13.43;;;3.50;99.90;;;;;;5082168;28;20041;-87